sensor_id;sensor_type;location;lat;lon;timestamp;pressure;altitude;pressure_sealevel;temperature;humidity
70217;BME280;65567;55.684;37.570;2022-12-07T00:01:36;100377.28;;;-5.28;39.33
70217;BME280;65567;55.684;37.570;2022-12-07T00:04:05;100372.19;;;-5.28;39.43
70217;BME280;65567;55.684;37.570;2022-12-07T00:06:36;100380.22;;;-5.43;39.88
70217;BME280;65567;55.684;37.570;2022-12-07T00:09:07;100379.72;;;-5.59;39.85
70217;BME280;65567;55.684;37.570;2022-12-07T00:11:33;100379.69;;;-5.60;40.08
70217;BME280;65567;55.684;37.570;2022-12-07T00:14:02;100382.81;;;-5.42;39.64
70217;BME280;65567;55.684;37.570;2022-12-07T00:16:30;100380.59;;;-5.31;39.38
70217;BME280;65567;55.684;37.570;2022-12-07T00:18:56;100375.97;;;-5.69;40.11
70217;BME280;65567;55.684;37.570;2022-12-07T00:21:27;100384.25;;;-5.76;40.19
70217;BME280;65567;55.684;37.570;2022-12-07T00:23:55;100388.34;;;-5.81;40.41
70217;BME280;65567;55.684;37.570;2022-12-07T00:26:28;100387.72;;;-6.00;40.72
70217;BME280;65567;55.684;37.570;2022-12-07T00:28:57;100384.22;;;-6.03;40.81
70217;BME280;65567;55.684;37.570;2022-12-07T00:31:28;100382.72;;;-5.71;40.15
70217;BME280;65567;55.684;37.570;2022-12-07T00:33:55;100375.16;;;-5.68;40.12
70217;BME280;65567;55.684;37.570;2022-12-07T00:36:23;100378.91;;;-5.84;40.28
70217;BME280;65567;55.684;37.570;2022-12-07T00:38:49;100378.06;;;-5.83;40.34
70217;BME280;65567;55.684;37.570;2022-12-07T00:41:20;100374.78;;;-6.06;40.92
70217;BME280;65567;55.684;37.570;2022-12-07T00:43:47;100383.16;;;-5.83;40.34
70217;BME280;65567;55.684;37.570;2022-12-07T00:46:13;100378.09;;;-6.08;40.81
70217;BME280;65567;55.684;37.570;2022-12-07T00:48:40;100385.78;;;-5.81;40.31
70217;BME280;65567;55.684;37.570;2022-12-07T00:51:06;100379.38;;;-5.94;40.60
70217;BME280;65567;55.684;37.570;2022-12-07T00:53:36;100385.66;;;-5.84;40.48
70217;BME280;65567;55.684;37.570;2022-12-07T00:56:06;100368.94;;;-6.02;40.97
70217;BME280;65567;55.684;37.570;2022-12-07T00:58:32;100385.53;;;-5.89;40.49
70217;BME280;65567;55.684;37.570;2022-12-07T01:01:00;100375.66;;;-5.78;40.37
70217;BME280;65567;55.684;37.570;2022-12-07T01:03:27;100373.75;;;-6.11;40.88
70217;BME280;65567;55.684;37.570;2022-12-07T01:05:54;100386.41;;;-6.37;41.40
70217;BME280;65567;55.684;37.570;2022-12-07T01:08:21;100385.00;;;-6.28;41.38
70217;BME280;65567;55.684;37.570;2022-12-07T01:10:47;100376.06;;;-6.17;41.08
70217;BME280;65567;55.684;37.570;2022-12-07T01:13:13;100382.59;;;-6.25;41.21
70217;BME280;65567;55.684;37.570;2022-12-07T01:15:43;100377.25;;;-6.32;41.32
70217;BME280;65567;55.684;37.570;2022-12-07T01:18:10;100377.69;;;-6.43;41.51
70217;BME280;65567;55.684;37.570;2022-12-07T01:20:36;100381.56;;;-6.53;41.69
70217;BME280;65567;55.684;37.570;2022-12-07T01:23:02;100360.78;;;-6.40;41.42
70217;BME280;65567;55.684;37.570;2022-12-07T01:25:28;100367.97;;;-6.29;41.38
70217;BME280;65567;55.684;37.570;2022-12-07T01:27:54;100373.69;;;-6.37;41.39
70217;BME280;65567;55.684;37.570;2022-12-07T01:30:20;100377.22;;;-6.56;41.72
70217;BME280;65567;55.684;37.570;2022-12-07T01:32:46;100374.28;;;-6.67;41.81
70217;BME280;65567;55.684;37.570;2022-12-07T01:35:12;100369.44;;;-6.60;41.67
70217;BME280;65567;55.684;37.570;2022-12-07T01:37:38;100371.69;;;-6.44;41.45
70217;BME280;65567;55.684;37.570;2022-12-07T01:40:06;100369.38;;;-6.38;41.35
70217;BME280;65567;55.684;37.570;2022-12-07T01:42:34;100372.16;;;-6.32;41.21
70217;BME280;65567;55.684;37.570;2022-12-07T01:47:51;100354.34;;;-6.54;41.49
70217;BME280;65567;55.684;37.570;2022-12-07T01:50:18;100352.41;;;-6.37;41.36
70217;BME280;65567;55.684;37.570;2022-12-07T01:52:46;100350.47;;;-6.67;41.86
70217;BME280;65567;55.684;37.570;2022-12-07T01:55:15;100357.59;;;-6.58;41.75
70217;BME280;65567;55.684;37.570;2022-12-07T01:57:45;100346.88;;;-6.50;41.42
70217;BME280;65567;55.684;37.570;2022-12-07T02:00:12;100345.31;;;-6.69;41.89
70217;BME280;65567;55.684;37.570;2022-12-07T02:03:04;100338.28;;;-6.76;42.11
70217;BME280;65567;55.684;37.570;2022-12-07T02:05:28;100347.28;;;-6.61;41.84
70217;BME280;65567;55.684;37.570;2022-12-07T02:07:55;100345.25;;;-6.48;41.59
70217;BME280;65567;55.684;37.570;2022-12-07T02:10:27;100344.41;;;-6.71;41.96
70217;BME280;65567;55.684;37.570;2022-12-07T02:12:56;100345.44;;;-6.66;41.79
70217;BME280;65567;55.684;37.570;2022-12-07T02:15:51;100336.22;;;-6.62;41.79
70217;BME280;65567;55.684;37.570;2022-12-07T02:26:50;100329.06;;;-6.48;41.52
70217;BME280;65567;55.684;37.570;2022-12-07T02:29:40;100332.22;;;-6.55;41.57
70217;BME280;65567;55.684;37.570;2022-12-07T02:32:15;100336.13;;;-6.65;41.74
70217;BME280;65567;55.684;37.570;2022-12-07T02:34:56;100331.34;;;-6.80;42.09
70217;BME280;65567;55.684;37.570;2022-12-07T02:39:59;100323.31;;;-6.67;41.84
70217;BME280;65567;55.684;37.570;2022-12-07T02:42:33;100331.69;;;-6.71;41.97
70217;BME280;65567;55.684;37.570;2022-12-07T02:45:02;100339.28;;;-6.48;41.48
70217;BME280;65567;55.684;37.570;2022-12-07T02:47:32;100327.03;;;-6.81;42.29
70217;BME280;65567;55.684;37.570;2022-12-07T02:49:59;100336.88;;;-6.68;42.31
70217;BME280;65567;55.684;37.570;2022-12-07T02:52:28;100342.47;;;-6.54;42.26
70217;BME280;65567;55.684;37.570;2022-12-07T02:54:53;100330.13;;;-6.19;41.47
70217;BME280;65567;55.684;37.570;2022-12-07T02:58:23;100331.69;;;-6.47;41.93
70217;BME280;65567;55.684;37.570;2022-12-07T03:00:19;100331.53;;;-6.51;42.32
70217;BME280;65567;55.684;37.570;2022-12-07T03:03:07;100347.63;;;-6.52;42.08
70217;BME280;65567;55.684;37.570;2022-12-07T03:11:55;100330.09;;;-6.43;42.29
70217;BME280;65567;55.684;37.570;2022-12-07T03:14:40;100328.75;;;-6.57;42.47
70217;BME280;65567;55.684;37.570;2022-12-07T03:17:14;100326.13;;;-6.83;43.11
70217;BME280;65567;55.684;37.570;2022-12-07T03:19:43;100331.34;;;-6.56;42.71
70217;BME280;65567;55.684;37.570;2022-12-07T03:22:12;100324.94;;;-6.69;43.01
70217;BME280;65567;55.684;37.570;2022-12-07T03:24:51;100328.09;;;-6.76;43.10
70217;BME280;65567;55.684;37.570;2022-12-07T03:27:31;100322.84;;;-6.79;43.38
70217;BME280;65567;55.684;37.570;2022-12-07T03:30:17;100330.63;;;-6.99;43.69
70217;BME280;65567;55.684;37.570;2022-12-07T03:32:53;100321.81;;;-6.84;43.51
70217;BME280;65567;55.684;37.570;2022-12-07T03:35:31;100326.44;;;-6.74;43.25
70217;BME280;65567;55.684;37.570;2022-12-07T03:38:33;100321.63;;;-6.66;43.07
70217;BME280;65567;55.684;37.570;2022-12-07T03:41:08;100327.81;;;-6.59;42.96
70217;BME280;65567;55.684;37.570;2022-12-07T03:43:36;100327.34;;;-6.49;42.56
70217;BME280;65567;55.684;37.570;2022-12-07T03:54:23;100318.09;;;-6.70;43.41
70217;BME280;65567;55.684;37.570;2022-12-07T03:56:52;100318.47;;;-6.83;43.66
70217;BME280;65567;55.684;37.570;2022-12-07T03:59:20;100317.28;;;-6.69;43.60
70217;BME280;65567;55.684;37.570;2022-12-07T04:01:53;100319.25;;;-6.61;43.41
70217;BME280;65567;55.684;37.570;2022-12-07T04:04:20;100307.28;;;-6.64;43.34
70217;BME280;65567;55.684;37.570;2022-12-07T04:06:46;100304.41;;;-6.73;43.61
70217;BME280;65567;55.684;37.570;2022-12-07T04:09:12;100315.69;;;-6.67;43.76
70217;BME280;65567;55.684;37.570;2022-12-07T04:11:40;100309.59;;;-6.70;43.85
70217;BME280;65567;55.684;37.570;2022-12-07T04:14:05;100319.41;;;-6.81;43.99
70217;BME280;65567;55.684;37.570;2022-12-07T04:16:48;100310.09;;;-6.56;43.72
70217;BME280;65567;55.684;37.570;2022-12-07T04:19:16;100311.44;;;-6.66;43.92
70217;BME280;65567;55.684;37.570;2022-12-07T04:21:42;100308.19;;;-6.86;44.63
70217;BME280;65567;55.684;37.570;2022-12-07T04:24:08;100307.50;;;-7.05;45.11
70217;BME280;65567;55.684;37.570;2022-12-07T04:26:35;100316.50;;;-7.36;46.03
70217;BME280;65567;55.684;37.570;2022-12-07T04:29:01;100305.22;;;-7.20;45.64
70217;BME280;65567;55.684;37.570;2022-12-07T04:31:26;100301.97;;;-7.16;45.66
70217;BME280;65567;55.684;37.570;2022-12-07T04:33:52;100309.22;;;-7.04;45.69
70217;BME280;65567;55.684;37.570;2022-12-07T04:36:18;100307.56;;;-7.03;45.62
70217;BME280;65567;55.684;37.570;2022-12-07T04:38:46;100303.31;;;-7.25;46.16
70217;BME280;65567;55.684;37.570;2022-12-07T04:41:12;100299.06;;;-7.02;45.77
70217;BME280;65567;55.684;37.570;2022-12-07T04:43:38;100299.50;;;-7.14;46.06
70217;BME280;65567;55.684;37.570;2022-12-07T04:46:04;100293.41;;;-7.40;46.94
70217;BME280;65567;55.684;37.570;2022-12-07T04:48:30;100296.19;;;-7.34;46.94
70217;BME280;65567;55.684;37.570;2022-12-07T04:50:56;100302.72;;;-7.18;46.71
70217;BME280;65567;55.684;37.570;2022-12-07T04:53:22;100301.81;;;-7.20;46.54
70217;BME280;65567;55.684;37.570;2022-12-07T04:55:48;100297.41;;;-7.02;46.58
70217;BME280;65567;55.684;37.570;2022-12-07T04:58:14;100304.47;;;-7.17;46.74
70217;BME280;65567;55.684;37.570;2022-12-07T05:00:40;100302.66;;;-7.42;47.35
70217;BME280;65567;55.684;37.570;2022-12-07T05:03:06;100302.50;;;-7.24;47.27
70217;BME280;65567;55.684;37.570;2022-12-07T05:05:32;100292.69;;;-7.15;47.31
70217;BME280;65567;55.684;37.570;2022-12-07T05:07:58;100295.34;;;-7.35;47.78
70217;BME280;65567;55.684;37.570;2022-12-07T05:10:24;100300.88;;;-7.22;47.66
70217;BME280;65567;55.684;37.570;2022-12-07T05:12:49;100314.66;;;-7.17;47.73
70217;BME280;65567;55.684;37.570;2022-12-07T05:15:16;100322.22;;;-6.96;47.22
70217;BME280;65567;55.684;37.570;2022-12-07T05:17:42;100326.69;;;-7.13;47.65
70217;BME280;65567;55.684;37.570;2022-12-07T05:20:08;100306.91;;;-7.20;48.11
70217;BME280;65567;55.684;37.570;2022-12-07T05:22:34;100310.50;;;-7.15;47.92
70217;BME280;65567;55.684;37.570;2022-12-07T05:25:01;100294.59;;;-7.09;48.06
70217;BME280;65567;55.684;37.570;2022-12-07T05:27:27;100294.53;;;-7.11;47.90
70217;BME280;65567;55.684;37.570;2022-12-07T05:29:53;100296.38;;;-7.07;48.07
70217;BME280;65567;55.684;37.570;2022-12-07T05:32:19;100301.88;;;-7.19;48.50
70217;BME280;65567;55.684;37.570;2022-12-07T05:34:44;100304.81;;;-7.31;48.70
70217;BME280;65567;55.684;37.570;2022-12-07T05:37:10;100299.03;;;-7.26;49.17
70217;BME280;65567;55.684;37.570;2022-12-07T05:39:36;100295.28;;;-7.14;48.88
70217;BME280;65567;55.684;37.570;2022-12-07T05:42:06;100290.44;;;-7.07;49.01
70217;BME280;65567;55.684;37.570;2022-12-07T05:44:42;100292.69;;;-7.15;49.24
70217;BME280;65567;55.684;37.570;2022-12-07T05:47:09;100300.78;;;-7.25;49.58
70217;BME280;65567;55.684;37.570;2022-12-07T05:49:34;100303.97;;;-7.30;49.85
70217;BME280;65567;55.684;37.570;2022-12-07T05:52:00;100289.78;;;-7.02;49.56
70217;BME280;65567;55.684;37.570;2022-12-07T05:54:26;100290.16;;;-6.91;49.25
70217;BME280;65567;55.684;37.570;2022-12-07T05:56:52;100299.97;;;-7.02;49.77
70217;BME280;65567;55.684;37.570;2022-12-07T05:59:18;100292.44;;;-6.99;49.70
70217;BME280;65567;55.684;37.570;2022-12-07T06:02:02;100294.03;;;-6.78;49.64
70217;BME280;65567;55.684;37.570;2022-12-07T06:04:31;100284.94;;;-6.71;49.61
70217;BME280;65567;55.684;37.570;2022-12-07T06:06:57;100297.69;;;-6.47;49.59
70217;BME280;65567;55.684;37.570;2022-12-07T06:09:25;100304.34;;;-6.26;49.36
70217;BME280;65567;55.684;37.570;2022-12-07T06:11:52;100292.63;;;-6.21;49.19
70217;BME280;65567;55.684;37.570;2022-12-07T06:14:37;100299.50;;;-5.93;48.73
70217;BME280;65567;55.684;37.570;2022-12-07T06:17:03;100275.06;;;-5.59;48.36
70217;BME280;65567;55.684;37.570;2022-12-07T06:19:29;100295.56;;;-5.28;47.74
70217;BME280;65567;55.684;37.570;2022-12-07T06:21:55;100290.84;;;-5.16;47.52
70217;BME280;65567;55.684;37.570;2022-12-07T06:24:22;100286.44;;;-4.91;47.18
70217;BME280;65567;55.684;37.570;2022-12-07T06:26:48;100307.59;;;-4.67;46.65
70217;BME280;65567;55.684;37.570;2022-12-07T06:29:14;100285.16;;;-4.77;46.74
70217;BME280;65567;55.684;37.570;2022-12-07T06:31:40;100276.72;;;-4.74;46.63
70217;BME280;65567;55.684;37.570;2022-12-07T06:34:10;100291.94;;;-4.47;46.30
70217;BME280;65567;55.684;37.570;2022-12-07T06:36:36;100298.28;;;-4.33;45.83
70217;BME280;65567;55.684;37.570;2022-12-07T06:39:03;100284.16;;;-4.20;45.87
70217;BME280;65567;55.684;37.570;2022-12-07T06:41:29;100279.88;;;-4.19;45.71
70217;BME280;65567;55.684;37.570;2022-12-07T06:43:54;100283.81;;;-4.32;45.93
70217;BME280;65567;55.684;37.570;2022-12-07T06:46:20;100287.88;;;-4.07;45.40
70217;BME280;65567;55.684;37.570;2022-12-07T06:48:47;100275.84;;;-4.11;45.42
70217;BME280;65567;55.684;37.570;2022-12-07T06:51:13;100276.50;;;-4.18;45.63
70217;BME280;65567;55.684;37.570;2022-12-07T06:53:39;100272.91;;;-3.56;44.62
70217;BME280;65567;55.684;37.570;2022-12-07T06:56:05;100278.09;;;-3.53;44.57
70217;BME280;65567;55.684;37.570;2022-12-07T06:58:31;100274.81;;;-3.09;43.83
70217;BME280;65567;55.684;37.570;2022-12-07T07:00:57;100273.56;;;-2.87;43.54
70217;BME280;65567;55.684;37.570;2022-12-07T07:03:24;100279.00;;;-2.72;43.27
70217;BME280;65567;55.684;37.570;2022-12-07T07:05:50;100286.59;;;-2.75;42.75
70217;BME280;65567;55.684;37.570;2022-12-07T07:08:15;100273.81;;;-2.73;42.31
70217;BME280;65567;55.684;37.570;2022-12-07T07:10:41;100281.31;;;-2.38;41.80
70217;BME280;65567;55.684;37.570;2022-12-07T07:13:08;100292.69;;;-2.25;41.62
70217;BME280;65567;55.684;37.570;2022-12-07T07:15:34;100278.47;;;-2.08;41.16
70217;BME280;65567;55.684;37.570;2022-12-07T07:18:02;100275.69;;;-1.70;40.62
70217;BME280;65567;55.684;37.570;2022-12-07T07:20:29;100281.03;;;-1.57;40.57
70217;BME280;65567;55.684;37.570;2022-12-07T07:22:55;100271.88;;;-1.37;39.76
70217;BME280;65567;55.684;37.570;2022-12-07T07:25:21;100273.97;;;-1.11;39.45
70217;BME280;65567;55.684;37.570;2022-12-07T07:27:47;100270.84;;;-0.88;38.98
70217;BME280;65567;55.684;37.570;2022-12-07T07:30:13;100271.97;;;-0.64;38.10
70217;BME280;65567;55.684;37.570;2022-12-07T07:32:39;100260.16;;;-0.48;37.77
70217;BME280;65567;55.684;37.570;2022-12-07T07:35:05;100260.22;;;-0.41;37.80
70217;BME280;65567;55.684;37.570;2022-12-07T07:37:31;100293.84;;;-0.28;37.13
70217;BME280;65567;55.684;37.570;2022-12-07T07:40:00;100267.44;;;-0.09;37.20
70217;BME280;65567;55.684;37.570;2022-12-07T07:42:26;100271.00;;;0.06;36.78
70217;BME280;65567;55.684;37.570;2022-12-07T07:44:55;100260.63;;;-0.01;36.74
70217;BME280;65567;55.684;37.570;2022-12-07T07:47:20;100264.09;;;0.05;36.84
70217;BME280;65567;55.684;37.570;2022-12-07T07:49:46;100260.94;;;0.41;36.07
70217;BME280;65567;55.684;37.570;2022-12-07T07:52:12;100252.50;;;0.59;35.96
70217;BME280;65567;55.684;37.570;2022-12-07T07:54:38;100262.00;;;0.68;35.75
70217;BME280;65567;55.684;37.570;2022-12-07T07:57:04;100248.38;;;0.92;35.13
70217;BME280;65567;55.684;37.570;2022-12-07T07:59:30;100262.16;;;0.94;34.94
70217;BME280;65567;55.684;37.570;2022-12-07T08:01:56;100257.03;;;1.04;34.89
70217;BME280;65567;55.684;37.570;2022-12-07T08:04:22;100248.50;;;1.19;34.64
70217;BME280;65567;55.684;37.570;2022-12-07T08:06:48;100252.81;;;1.26;34.75
70217;BME280;65567;55.684;37.570;2022-12-07T08:09:13;100273.56;;;1.46;34.12
70217;BME280;65567;55.684;37.570;2022-12-07T08:11:39;100247.72;;;1.52;33.96
70217;BME280;65567;55.684;37.570;2022-12-07T08:14:05;100257.28;;;1.81;33.88
70217;BME280;65567;55.684;37.570;2022-12-07T08:16:31;100240.03;;;1.77;33.10
70217;BME280;65567;55.684;37.570;2022-12-07T08:18:57;100243.50;;;1.87;32.82
70217;BME280;65567;55.684;37.570;2022-12-07T08:21:23;100250.41;;;1.91;32.95
70217;BME280;65567;55.684;37.570;2022-12-07T08:23:49;100231.44;;;1.84;32.80
70217;BME280;65567;55.684;37.570;2022-12-07T08:26:16;100227.16;;;1.86;32.75
70217;BME280;65567;55.684;37.570;2022-12-07T08:28:42;100234.91;;;2.14;32.72
70217;BME280;65567;55.684;37.570;2022-12-07T08:31:12;100235.78;;;2.18;31.92
70217;BME280;65567;55.684;37.570;2022-12-07T08:33:38;100219.41;;;2.23;32.12
70217;BME280;65567;55.684;37.570;2022-12-07T08:36:07;100234.03;;;2.49;31.91
70217;BME280;65567;55.684;37.570;2022-12-07T08:38:38;100227.06;;;2.67;31.68
70217;BME280;65567;55.684;37.570;2022-12-07T08:41:05;100223.59;;;2.85;31.15
70217;BME280;65567;55.684;37.570;2022-12-07T08:43:32;100223.72;;;2.30;31.51
70217;BME280;65567;55.684;37.570;2022-12-07T08:46:24;100222.75;;;2.81;30.71
70217;BME280;65567;55.684;37.570;2022-12-07T08:48:56;100217.59;;;2.62;30.40
70217;BME280;65567;55.684;37.570;2022-12-07T08:51:24;100213.38;;;2.38;30.91
70217;BME280;65567;55.684;37.570;2022-12-07T08:53:52;100206.44;;;2.42;30.74
70217;BME280;65567;55.684;37.570;2022-12-07T08:56:18;100217.59;;;2.73;30.90
70217;BME280;65567;55.684;37.570;2022-12-07T08:58:45;100214.91;;;3.06;30.29
70217;BME280;65567;55.684;37.570;2022-12-07T09:01:11;100209.66;;;3.18;29.98
70217;BME280;65567;55.684;37.570;2022-12-07T09:03:37;100223.50;;;3.08;30.00
70217;BME280;65567;55.684;37.570;2022-12-07T09:06:03;100203.72;;;2.94;30.42
70217;BME280;65567;55.684;37.570;2022-12-07T09:08:36;100212.28;;;3.15;29.79
70217;BME280;65567;55.684;37.570;2022-12-07T09:11:05;100201.84;;;3.27;29.44
70217;BME280;65567;55.684;37.570;2022-12-07T09:13:31;100205.38;;;3.14;29.37
70217;BME280;65567;55.684;37.570;2022-12-07T09:15:57;100200.13;;;3.26;29.26
70217;BME280;65567;55.684;37.570;2022-12-07T09:18:23;100211.44;;;3.04;29.22
70217;BME280;65567;55.684;37.570;2022-12-07T09:20:50;100201.88;;;3.24;29.00
70217;BME280;65567;55.684;37.570;2022-12-07T09:23:16;100211.41;;;3.14;29.53
70217;BME280;65567;55.684;37.570;2022-12-07T09:25:45;100192.38;;;3.23;29.07
70217;BME280;65567;55.684;37.570;2022-12-07T09:28:11;100187.13;;;3.33;28.94
70217;BME280;65567;55.684;37.570;2022-12-07T09:30:48;100182.78;;;3.38;28.91
70217;BME280;65567;55.684;37.570;2022-12-07T09:33:14;100177.56;;;3.50;28.79
70217;BME280;65567;55.684;37.570;2022-12-07T09:35:45;100162.94;;;3.41;28.38
70217;BME280;65567;55.684;37.570;2022-12-07T09:38:12;100177.69;;;3.28;28.82
70217;BME280;65567;55.684;37.570;2022-12-07T09:40:39;100171.69;;;3.20;28.52
70217;BME280;65567;55.684;37.570;2022-12-07T09:43:10;100177.66;;;3.30;28.56
70217;BME280;65567;55.684;37.570;2022-12-07T09:45:38;100164.72;;;3.30;28.52
70217;BME280;65567;55.684;37.570;2022-12-07T09:48:04;100187.13;;;3.37;28.08
70217;BME280;65567;55.684;37.570;2022-12-07T09:50:31;100174.31;;;3.14;28.29
70217;BME280;65567;55.684;37.570;2022-12-07T09:53:09;100180.38;;;3.07;28.61
70217;BME280;65567;55.684;37.570;2022-12-07T09:55:40;100168.25;;;3.12;28.05
70217;BME280;65567;55.684;37.570;2022-12-07T09:58:16;100162.38;;;2.85;28.63
70217;BME280;65567;55.684;37.570;2022-12-07T10:00:44;100145.19;;;2.66;28.63
70217;BME280;65567;55.684;37.570;2022-12-07T10:03:11;100177.09;;;2.60;28.86
70217;BME280;65567;55.684;37.570;2022-12-07T10:05:44;100147.78;;;2.64;28.68
70217;BME280;65567;55.684;37.570;2022-12-07T10:08:12;100167.56;;;2.79;28.77
70217;BME280;65567;55.684;37.570;2022-12-07T10:10:38;100149.59;;;2.25;29.32
70217;BME280;65567;55.684;37.570;2022-12-07T10:13:12;100146.03;;;2.68;28.60
70217;BME280;65567;55.684;37.570;2022-12-07T10:18:21;100147.78;;;2.59;28.84
70217;BME280;65567;55.684;37.570;2022-12-07T10:21:00;100157.25;;;2.63;28.41
70217;BME280;65567;55.684;37.570;2022-12-07T10:23:27;100149.59;;;2.17;28.97
70217;BME280;65567;55.684;37.570;2022-12-07T10:25:53;100153.91;;;2.29;29.03
70217;BME280;65567;55.684;37.570;2022-12-07T10:28:21;100153.09;;;2.02;29.22
70217;BME280;65567;55.684;37.570;2022-12-07T10:31:17;100143.63;;;1.96;29.35
70217;BME280;65567;55.684;37.570;2022-12-07T10:34:23;100151.38;;;1.84;29.47
70217;BME280;65567;55.684;37.570;2022-12-07T10:36:51;100147.06;;;1.89;29.17
70217;BME280;65567;55.684;37.570;2022-12-07T10:39:22;100144.47;;;1.54;29.89
70217;BME280;65567;55.684;37.570;2022-12-07T10:42:03;100152.22;;;1.57;29.88
70217;BME280;65567;55.684;37.570;2022-12-07T10:44:33;100131.56;;;1.77;29.47
70217;BME280;65567;55.684;37.570;2022-12-07T10:47:34;100145.31;;;1.57;29.71
70217;BME280;65567;55.684;37.570;2022-12-07T10:58:50;100122.72;;;0.65;31.26
70217;BME280;65567;55.684;37.570;2022-12-07T11:04:21;100146.63;;;0.28;32.03
70217;BME280;65567;55.684;37.570;2022-12-07T11:12:20;100120.88;;;0.35;31.67
70217;BME280;65567;55.684;37.570;2022-12-07T11:17:56;100105.13;;;-0.13;32.59
70217;BME280;65567;55.684;37.570;2022-12-07T11:20:42;100117.00;;;-0.36;32.79
70217;BME280;65567;55.684;37.570;2022-12-07T11:26:45;100112.38;;;-0.75;33.52
70217;BME280;65567;55.684;37.570;2022-12-07T11:31:54;100131.31;;;-1.44;34.46
70217;BME280;65567;55.684;37.570;2022-12-07T11:37:01;100103.97;;;-2.02;35.42
70217;BME280;65567;55.684;37.570;2022-12-07T11:39:35;100101.06;;;-2.26;36.00
70217;BME280;65567;55.684;37.570;2022-12-07T11:42:16;100118.53;;;-2.57;36.90
70217;BME280;65567;55.684;37.570;2022-12-07T11:47:53;100106.00;;;-2.91;37.61
70217;BME280;65567;55.684;37.570;2022-12-07T11:50:32;100107.00;;;-3.28;38.49
70217;BME280;65567;55.684;37.570;2022-12-07T11:55:43;100103.66;;;-3.66;39.24
70217;BME280;65567;55.684;37.570;2022-12-07T12:01:15;100099.72;;;-3.92;40.05
70217;BME280;65567;55.684;37.570;2022-12-07T12:03:48;100091.94;;;-3.95;39.99
70217;BME280;65567;55.684;37.570;2022-12-07T12:06:15;100094.31;;;-4.05;40.29
70217;BME280;65567;55.684;37.570;2022-12-07T12:08:48;100073.50;;;-4.20;40.65
70217;BME280;65567;55.684;37.570;2022-12-07T12:14:37;100063.41;;;-4.14;40.71
70217;BME280;65567;55.684;37.570;2022-12-07T12:20:19;100069.09;;;-4.26;41.11
70217;BME280;65567;55.684;37.570;2022-12-07T12:23:10;100055.72;;;-4.52;41.87
70217;BME280;65567;55.684;37.570;2022-12-07T12:31:12;100080.19;;;-4.95;43.11
70217;BME280;65567;55.684;37.570;2022-12-07T12:33:44;100070.13;;;-5.23;43.56
70217;BME280;65567;55.684;37.570;2022-12-07T12:57:33;100070.66;;;-5.35;44.32
70217;BME280;65567;55.684;37.570;2022-12-07T13:00:14;100060.63;;;-5.60;45.32
70217;BME280;65567;55.684;37.570;2022-12-07T13:02:54;100091.84;;;-5.69;45.58
70217;BME280;65567;55.684;37.570;2022-12-07T13:05:23;100081.53;;;-5.72;45.74
70217;BME280;65567;55.684;37.570;2022-12-07T13:15:37;100076.97;;;-6.13;47.15
70217;BME280;65567;55.684;37.570;2022-12-07T13:26:12;100051.22;;;-6.22;47.54
70217;BME280;65567;55.684;37.570;2022-12-07T13:28:43;100047.94;;;-6.45;48.44
70217;BME280;65567;55.684;37.570;2022-12-07T13:31:30;100053.06;;;-6.45;48.46
70217;BME280;65567;55.684;37.570;2022-12-07T13:33:57;100063.75;;;-6.28;47.93
70217;BME280;65567;55.684;37.570;2022-12-07T13:36:25;100120.50;;;-6.36;48.27
70217;BME280;65567;55.684;37.570;2022-12-07T13:38:57;100051.94;;;-6.54;48.59
70217;BME280;65567;55.684;37.570;2022-12-07T13:41:25;100069.19;;;-6.45;48.56
70217;BME280;65567;55.684;37.570;2022-12-07T13:44:07;100049.00;;;-6.39;48.41
70217;BME280;65567;55.684;37.570;2022-12-07T13:49:18;100042.28;;;-6.64;48.90
70217;BME280;65567;55.684;37.570;2022-12-07T13:51:45;100049.47;;;-6.78;49.18
70217;BME280;65567;55.684;37.570;2022-12-07T13:54:13;100036.75;;;-6.78;49.21
70217;BME280;65567;55.684;37.570;2022-12-07T13:56:39;100042.38;;;-6.61;48.95
70217;BME280;65567;55.684;37.570;2022-12-07T13:59:22;100052.50;;;-6.90;49.57
70217;BME280;65567;55.684;37.570;2022-12-07T14:01:50;100057.53;;;-6.91;49.54
70217;BME280;65567;55.684;37.570;2022-12-07T14:06:53;100076.22;;;-6.65;48.96
70217;BME280;65567;55.684;37.570;2022-12-07T14:09:24;100039.97;;;-6.84;49.31
70217;BME280;65567;55.684;37.570;2022-12-07T14:11:53;100061.41;;;-6.77;49.25
70217;BME280;65567;55.684;37.570;2022-12-07T14:14:22;100035.59;;;-6.88;49.64
70217;BME280;65567;55.684;37.570;2022-12-07T14:17:11;100040.72;;;-6.86;49.60
70217;BME280;65567;55.684;37.570;2022-12-07T14:25:24;100042.09;;;-6.96;49.72
70217;BME280;65567;55.684;37.570;2022-12-07T14:27:59;100045.09;;;-7.08;50.00
70217;BME280;65567;55.684;37.570;2022-12-07T14:30:33;100065.00;;;-6.96;49.95
70217;BME280;65567;55.684;37.570;2022-12-07T14:33:02;100027.59;;;-6.99;49.62
70217;BME280;65567;55.684;37.570;2022-12-07T14:35:29;100035.44;;;-6.92;49.45
70217;BME280;65567;55.684;37.570;2022-12-07T14:37:56;100026.31;;;-7.11;50.15
70217;BME280;65567;55.684;37.570;2022-12-07T14:40:24;100065.91;;;-6.95;50.10
70217;BME280;65567;55.684;37.570;2022-12-07T14:42:54;100026.78;;;-6.98;49.90
70217;BME280;65567;55.684;37.570;2022-12-07T14:45:22;100025.25;;;-6.92;49.62
70217;BME280;65567;55.684;37.570;2022-12-07T14:47:49;100050.25;;;-6.81;49.63
70217;BME280;65567;55.684;37.570;2022-12-07T14:50:17;100038.78;;;-6.93;49.73
70217;BME280;65567;55.684;37.570;2022-12-07T14:52:46;100016.06;;;-7.13;50.30
70217;BME280;65567;55.684;37.570;2022-12-07T14:57:45;100050.25;;;-6.81;49.67
70217;BME280;65567;55.684;37.570;2022-12-07T15:00:15;100073.03;;;-6.85;49.78
70217;BME280;65567;55.684;37.570;2022-12-07T15:02:46;100025.16;;;-6.95;49.91
70217;BME280;65567;55.684;37.570;2022-12-07T15:05:12;100028.91;;;-6.84;50.05
70217;BME280;65567;55.684;37.570;2022-12-07T15:07:39;100030.91;;;-6.74;49.49